createdAt,value
2019-01-25T08:24:45.480Z,28.70
2019-01-25T08:27:13.012Z,26.27
2019-01-25T08:29:40.557Z,26.50
2019-01-25T08:32:08.356Z,25.87
2019-01-25T08:34:36.033Z,26.23
2019-01-25T08:37:03.599Z,26.73
2019-01-25T08:39:31.223Z,16.33
2019-01-25T08:41:58.741Z,17.77
2019-01-25T08:44:26.298Z,30.63
2019-01-25T08:46:53.885Z,32.77
2019-01-25T08:49:21.409Z,29.13
2019-01-25T08:51:49.076Z,25.23
2019-01-25T08:54:16.638Z,44.73
2019-01-25T08:56:44.340Z,43.80
2019-01-25T08:59:11.979Z,35.27
2019-01-25T09:01:39.494Z,35.00
2019-01-25T09:04:07.028Z,40.43
2019-01-25T09:06:34.895Z,20.17
2019-01-25T09:09:04.977Z,23.37
2019-01-25T09:11:32.528Z,20.97
2019-01-25T09:14:00.156Z,19.37
2019-01-25T09:16:27.698Z,20.70
2019-01-25T09:18:55.293Z,22.87
2019-01-25T09:21:22.857Z,33.23
2019-01-25T09:23:50.399Z,34.33
2019-01-25T09:26:17.922Z,51.43
2019-01-25T09:28:45.802Z,37.63
2019-01-25T09:31:13.342Z,33.43
2019-01-25T09:33:40.884Z,24.07
2019-01-25T09:36:08.465Z,60.63
2019-01-25T09:38:36.030Z,33.30
2019-01-25T09:41:03.665Z,31.07
2019-01-25T09:43:32.441Z,23.10
2019-01-25T09:45:59.980Z,30.37
2019-01-25T09:48:27.555Z,19.73
2019-01-25T09:50:55.149Z,22.93
2019-01-25T09:53:22.694Z,18.87
2019-01-25T09:55:50.223Z,22.77
2019-01-25T09:58:18.110Z,18.13
2019-01-25T10:00:58.608Z,26.13
2019-01-25T10:03:26.166Z,27.07
2019-01-25T10:05:53.697Z,22.43
2019-01-25T10:08:40.735Z,26.13
2019-01-25T10:11:08.406Z,20.37
2019-01-25T10:13:35.990Z,30.00
2019-01-25T10:16:04.078Z,29.40
2019-01-25T10:18:31.663Z,38.47
2019-01-25T10:20:59.388Z,32.50
2019-01-25T10:23:32.001Z,34.77
2019-01-25T10:25:59.623Z,24.20
2019-01-25T10:28:33.356Z,33.97
2019-01-25T10:31:01.005Z,27.23
2019-01-25T10:33:28.601Z,28.13
2019-01-25T10:35:56.218Z,34.20
2019-01-25T10:38:23.789Z,26.47
2019-01-25T10:40:51.447Z,25.73
2019-01-25T10:43:18.985Z,25.13
2019-01-25T10:45:46.522Z,29.83
2019-01-25T10:48:14.093Z,27.17
2019-01-25T10:50:41.679Z,21.80
2019-01-25T10:53:09.313Z,22.90
2019-01-25T10:55:36.893Z,28.47
2019-01-25T10:58:05.660Z,25.83
2019-01-25T11:00:33.309Z,21.30
2019-01-25T11:03:00.886Z,19.10
2019-01-25T11:05:28.729Z,21.77
2019-01-25T11:07:56.449Z,23.63
2019-01-25T11:10:24.081Z,27.87
2019-01-25T11:12:51.649Z,22.60
2019-01-25T11:15:20.989Z,23.10
2019-01-25T11:17:49.364Z,28.83
2019-01-25T11:20:21.163Z,26.10
2019-01-25T11:22:48.741Z,25.03
2019-01-25T11:25:22.123Z,35.40
2019-01-25T11:27:49.683Z,28.90
2019-01-25T11:30:17.307Z,27.17
2019-01-25T11:32:44.826Z,26.33
2019-01-25T11:35:12.475Z,30.20
2019-01-25T11:37:40.089Z,25.63
2019-01-25T11:40:21.323Z,30.97
2019-01-25T11:42:48.928Z,21.80
2019-01-25T11:45:20.159Z,25.07
2019-01-25T11:47:52.693Z,28.23
2019-01-25T11:50:20.546Z,23.30
2019-01-25T11:52:48.109Z,21.67
2019-01-25T11:55:16.038Z,28.80
2019-01-25T11:57:43.824Z,31.13
2019-01-25T12:00:17.511Z,27.63
2019-01-25T12:02:45.065Z,29.87
2019-01-25T12:05:14.761Z,27.27
2019-01-25T12:07:42.286Z,26.53
2019-01-25T12:10:11.151Z,29.93
2019-01-25T12:12:38.731Z,29.80
2019-01-25T12:15:09.178Z,35.60
2019-01-25T12:17:36.745Z,30.03
2019-01-25T12:20:06.308Z,30.83
2019-01-25T12:22:35.784Z,27.93
2019-01-25T12:25:03.893Z,24.00
2019-01-25T12:27:31.451Z,22.30
2019-01-25T12:29:59.029Z,30.63
2019-01-25T12:32:26.587Z,27.90
2019-01-25T12:34:54.347Z,26.83
2019-01-25T12:37:21.931Z,31.67
2019-01-25T12:39:49.523Z,27.37
2019-01-25T12:42:17.100Z,36.00
2019-01-25T12:44:44.682Z,28.30
2019-01-25T12:47:12.239Z,31.50
2019-01-25T12:49:39.830Z,31.47
2019-01-25T12:52:09.307Z,31.53
2019-01-25T12:54:36.858Z,27.30
2019-01-25T12:57:04.444Z,33.97
2019-01-25T12:59:32.059Z,31.87
2019-01-25T13:02:00.147Z,31.27
2019-01-25T13:04:27.729Z,25.97
2019-01-25T13:06:55.396Z,30.17
2019-01-25T13:09:22.976Z,35.37
2019-01-25T13:11:50.620Z,38.47
2019-01-25T13:14:18.890Z,38.17
2019-01-25T13:16:46.483Z,33.43
2019-01-25T13:19:14.592Z,38.73
2019-01-25T13:21:42.224Z,28.57
2019-01-25T13:24:09.812Z,28.33
2019-01-25T13:26:37.366Z,27.43
2019-01-25T13:29:05.035Z,27.30
2019-01-25T13:31:32.649Z,30.33
2019-01-25T13:34:00.249Z,34.97
2019-01-25T13:36:27.805Z,30.47
2019-01-25T13:38:55.464Z,34.97
2019-01-25T13:41:27.272Z,39.20
2019-01-25T13:43:52.384Z,33.13
2019-01-25T13:46:19.913Z,32.40
2019-01-25T13:48:47.619Z,29.63
2019-01-25T13:51:15.200Z,29.63
2019-01-25T13:53:42.789Z,34.53
2019-01-25T13:56:10.385Z,33.40
2019-01-25T13:58:38.060Z,33.87
2019-01-25T14:01:05.588Z,31.93
2019-01-25T14:03:33.201Z,42.37
2019-01-25T14:06:00.786Z,36.53
2019-01-25T14:08:28.332Z,40.67
2019-01-25T14:10:56.081Z,44.80
2019-01-25T14:13:23.694Z,41.33
2019-01-25T14:15:51.241Z,43.97
2019-01-25T14:18:18.834Z,39.97
2019-01-25T14:20:46.398Z,44.63
2019-01-25T14:23:13.916Z,54.20
2019-01-25T14:25:41.483Z,50.60
2019-01-25T14:28:08.986Z,43.83
2019-01-25T14:30:41.457Z,40.70
2019-01-25T14:33:09.064Z,37.93
2019-01-25T14:35:37.633Z,45.47
2019-01-25T14:38:06.401Z,47.20
2019-01-25T14:40:33.997Z,51.90
2019-01-25T14:43:01.515Z,51.23
2019-01-25T14:45:29.070Z,68.83
2019-01-25T14:47:56.601Z,54.43
2019-01-25T14:50:25.322Z,50.43
2019-01-25T14:52:52.856Z,47.13
2019-01-25T14:55:22.395Z,46.57
2019-01-25T14:57:50.069Z,44.77
2019-01-25T15:00:17.577Z,49.60
2019-01-25T15:02:45.353Z,48.07
2019-01-25T15:05:15.709Z,59.30
2019-01-25T15:07:43.291Z,77.10
2019-01-25T15:10:13.621Z,65.93
2019-01-25T15:12:41.309Z,48.07
2019-01-25T15:15:10.421Z,54.70
2019-01-25T15:17:37.949Z,65.87
2019-01-25T15:20:07.460Z,65.63
2019-01-25T15:22:35.081Z,56.77
2019-01-25T15:25:02.733Z,96.23
2019-01-25T15:27:30.288Z,81.80
2019-01-25T15:29:57.872Z,79.53
2019-01-25T15:32:25.396Z,82.57
2019-01-25T15:34:52.969Z,97.43
2019-01-25T15:37:22.255Z,77.30
2019-01-25T15:39:49.919Z,94.37
2019-01-25T15:42:17.436Z,88.53
2019-01-25T15:44:44.975Z,85.00
2019-01-25T15:47:12.626Z,93.43
2019-01-25T15:49:40.184Z,84.27
2019-01-25T15:52:07.985Z,95.67
2019-01-25T15:54:35.599Z,83.67
2019-01-25T15:57:03.152Z,89.83
2019-01-25T15:59:31.432Z,95.10
2019-01-25T16:01:59.091Z,104.80
2019-01-25T16:04:26.695Z,107.87
2019-01-25T16:06:54.264Z,154.90
2019-01-25T16:09:23.668Z,154.67
2019-01-25T16:11:51.160Z,164.20
2019-01-25T16:14:18.729Z,126.03
2019-01-25T16:16:46.315Z,99.43
2019-01-25T16:19:13.843Z,118.70
2019-01-25T16:21:41.448Z,155.23
2019-01-25T16:24:09.072Z,144.50
2019-01-25T16:26:36.612Z,129.13
2019-01-25T16:29:04.284Z,123.43
2019-01-25T16:31:31.850Z,103.70
2019-01-25T16:33:59.404Z,113.33
2019-01-25T16:36:26.949Z,106.10
2019-01-25T16:38:54.498Z,90.00
2019-01-25T16:41:22.086Z,90.53
2019-01-25T16:43:49.613Z,113.60
2019-01-25T16:46:17.236Z,95.10
2019-01-25T16:48:44.920Z,82.63
2019-01-25T16:51:12.542Z,73.13
2019-01-25T16:53:40.183Z,73.93
2019-01-25T16:56:07.759Z,63.37
2019-01-25T16:58:35.301Z,70.10
2019-01-25T17:01:02.864Z,90.40
2019-01-25T17:03:30.438Z,77.47
2019-01-25T17:05:57.978Z,104.80
2019-01-25T17:08:25.542Z,116.37
2019-01-25T17:10:53.269Z,103.37
2019-01-25T17:13:20.849Z,95.17
2019-01-25T17:15:48.380Z,91.03
2019-01-25T17:18:15.963Z,98.83
2019-01-25T17:20:43.600Z,99.13
2019-01-25T17:23:11.148Z,80.17
2019-01-25T17:25:38.731Z,83.90
2019-01-25T17:28:07.904Z,106.77
2019-01-25T17:30:36.176Z,82.17
2019-01-25T17:33:03.821Z,97.33
2019-01-25T17:35:31.599Z,87.20
2019-01-25T17:37:59.211Z,64.07
2019-01-25T17:40:31.901Z,71.10
2019-01-25T17:42:59.607Z,52.37
2019-01-25T17:45:27.201Z,67.87
2019-01-25T17:47:54.914Z,74.97
2019-01-25T17:50:22.479Z,73.87
2019-01-25T17:52:50.083Z,85.23
2019-01-25T17:55:18.078Z,80.53
2019-01-25T17:57:45.609Z,77.80
2019-01-25T18:00:20.569Z,80.57
2019-01-25T18:02:48.122Z,78.97
2019-01-25T18:05:15.648Z,76.80
2019-01-25T18:07:44.283Z,76.20
2019-01-25T18:10:14.124Z,69.53
2019-01-25T18:12:41.755Z,77.37
2019-01-25T18:15:10.509Z,68.20
2019-01-25T18:17:38.074Z,69.73
2019-01-25T18:20:07.198Z,70.40
2019-01-25T18:22:34.837Z,73.77
